sensor_id;sensor_type;location;lat;lon;timestamp;pressure;altitude;pressure_sealevel;temperature;humidity
36980;BME280;22891;50.562;7.272;2023-02-18T06:37:35;100933.00;;;10.68;nan
36980;BME280;22891;50.562;7.272;2023-02-18T06:40:01;100930.00;;;10.79;nan
36980;BME280;22891;50.562;7.272;2023-02-18T06:42:28;100936.00;;;10.70;nan
36980;BME280;22891;50.562;7.272;2023-02-18T06:44:53;100923.00;;;10.64;nan
36980;BME280;22891;50.562;7.272;2023-02-18T06:47:19;100921.00;;;10.67;nan
36980;BME280;22891;50.562;7.272;2023-02-18T06:49:45;100917.00;;;10.62;nan
36980;BME280;22891;50.562;7.272;2023-02-18T06:52:10;100911.00;;;10.56;nan
36980;BME280;22891;50.562;7.272;2023-02-18T06:54:36;100900.00;;;10.64;nan
36980;BME280;22891;50.562;7.272;2023-02-18T06:57:02;100896.00;;;10.62;nan
36980;BME280;22891;50.562;7.272;2023-02-18T06:59:27;100897.00;;;10.68;nan
36980;BME280;22891;50.562;7.272;2023-02-18T07:01:53;100888.00;;;10.72;nan
36980;BME280;22891;50.562;7.272;2023-02-18T07:04:19;100922.00;;;10.74;nan
36980;BME280;22891;50.562;7.272;2023-02-18T07:06:45;100922.00;;;10.84;nan
36980;BME280;22891;50.562;7.272;2023-02-18T07:09:11;100930.00;;;10.82;nan
36980;BME280;22891;50.562;7.272;2023-02-18T07:11:37;100943.00;;;10.84;nan
36980;BME280;22891;50.562;7.272;2023-02-18T07:14:02;100959.00;;;10.90;nan
36980;BME280;22891;50.562;7.272;2023-02-18T07:16:28;100963.00;;;10.92;nan
36980;BME280;22891;50.562;7.272;2023-02-18T07:18:54;100968.00;;;10.95;nan
36980;BME280;22891;50.562;7.272;2023-02-18T07:21:19;100976.00;;;11.10;nan
36980;BME280;22891;50.562;7.272;2023-02-18T07:23:45;100996.00;;;11.12;nan
36980;BME280;22891;50.562;7.272;2023-02-18T07:26:12;100986.00;;;11.00;nan
36980;BME280;22891;50.562;7.272;2023-02-18T07:28:39;100994.00;;;11.05;nan
36980;BME280;22891;50.562;7.272;2023-02-18T07:31:06;101011.00;;;11.09;nan
36980;BME280;22891;50.562;7.272;2023-02-18T07:33:32;101030.00;;;11.26;nan
36980;BME280;22891;50.562;7.272;2023-02-18T07:35:59;101060.00;;;11.18;nan
36980;BME280;22891;50.562;7.272;2023-02-18T07:38:26;101068.00;;;11.27;nan
36980;BME280;22891;50.562;7.272;2023-02-18T07:40:53;101104.00;;;11.26;nan
36980;BME280;22891;50.562;7.272;2023-02-18T07:43:19;101099.00;;;11.17;nan
36980;BME280;22891;50.562;7.272;2023-02-18T07:45:45;101117.00;;;11.22;nan
36980;BME280;22891;50.562;7.272;2023-02-18T07:53:06;101173.00;;;11.13;nan
36980;BME280;22891;50.562;7.272;2023-02-18T07:55:32;101086.00;;;11.16;nan
36980;BME280;22891;50.562;7.272;2023-02-18T08:03:13;101096.00;;;11.25;nan
36980;BME280;22891;50.562;7.272;2023-02-18T08:08:04;101212.00;;;11.28;nan
36980;BME280;22891;50.562;7.272;2023-02-18T08:10:31;101163.00;;;11.27;nan
36980;BME280;22891;50.562;7.272;2023-02-18T08:12:56;101163.00;;;11.27;nan
36980;BME280;22891;50.562;7.272;2023-02-18T08:17:48;101254.00;;;11.39;nan
36980;BME280;22891;50.562;7.272;2023-02-18T08:20:13;101239.00;;;11.48;nan
36980;BME280;22891;50.562;7.272;2023-02-18T08:22:39;101229.00;;;11.39;nan
36980;BME280;22891;50.562;7.272;2023-02-18T08:25:05;101258.00;;;11.46;nan
36980;BME280;22891;50.562;7.272;2023-02-18T08:27:31;101251.00;;;11.27;nan
36980;BME280;22891;50.562;7.272;2023-02-18T08:29:57;101248.00;;;11.44;nan
36980;BME280;22891;50.562;7.272;2023-02-18T08:32:26;101254.00;;;11.43;nan
36980;BME280;22891;50.562;7.272;2023-02-18T08:34:53;101256.00;;;11.28;nan
36980;BME280;22891;50.562;7.272;2023-02-18T08:37:19;101256.00;;;11.28;nan
36980;BME280;22891;50.562;7.272;2023-02-18T08:39:45;101258.00;;;11.43;nan
36980;BME280;22891;50.562;7.272;2023-02-18T08:42:10;101262.00;;;11.43;nan
36980;BME280;22891;50.562;7.272;2023-02-18T08:44:36;101266.00;;;11.45;nan
36980;BME280;22891;50.562;7.272;2023-02-18T08:47:02;101277.00;;;11.55;nan
36980;BME280;22891;50.562;7.272;2023-02-18T08:49:28;101279.00;;;11.49;nan
36980;BME280;22891;50.562;7.272;2023-02-18T08:51:54;101293.00;;;11.48;nan
36980;BME280;22891;50.562;7.272;2023-02-18T08:54:20;101290.00;;;11.50;nan
36980;BME280;22891;50.562;7.272;2023-02-18T08:56:46;101291.00;;;11.60;nan
36980;BME280;22891;50.562;7.272;2023-02-18T08:59:12;101304.00;;;11.46;nan
36980;BME280;22891;50.562;7.272;2023-02-18T09:04:45;101304.00;;;11.49;nan
36980;BME280;22891;50.562;7.272;2023-02-18T09:07:11;101304.00;;;11.49;nan
36980;BME280;22891;50.562;7.272;2023-02-18T09:12:03;101311.00;;;11.22;nan
36980;BME280;22891;50.562;7.272;2023-02-18T09:14:28;101309.00;;;11.17;nan
36980;BME280;22891;50.562;7.272;2023-02-18T09:16:56;101278.00;;;11.08;nan
36980;BME280;22891;50.562;7.272;2023-02-18T09:19:22;101247.00;;;10.98;nan
36980;BME280;22891;50.562;7.272;2023-02-18T09:33:58;101254.00;;;10.78;nan
36980;BME280;22891;50.562;7.272;2023-02-18T09:46:38;101348.00;;;11.22;nan
36980;BME280;22891;50.562;7.272;2023-02-18T09:49:13;101340.00;;;11.36;nan
36980;BME280;22891;50.562;7.272;2023-02-18T09:51:40;101341.00;;;11.34;nan
36980;BME280;22891;50.562;7.272;2023-02-18T11:36:49;101273.00;;;12.81;nan
36980;BME280;22891;50.562;7.272;2023-02-18T11:39:26;101277.00;;;12.75;nan
36980;BME280;22891;50.562;7.272;2023-02-18T11:44:27;101226.00;;;12.00;nan
36980;BME280;22891;50.562;7.272;2023-02-18T11:49:28;101086.00;;;11.60;nan
36980;BME280;22891;50.562;7.272;2023-02-18T11:54:29;100865.00;;;11.28;nan
36980;BME280;22891;50.562;7.272;2023-02-18T11:57:01;100829.00;;;11.08;nan
36980;BME280;22891;50.562;7.272;2023-02-18T11:59:31;100815.00;;;10.82;nan
36980;BME280;22891;50.562;7.272;2023-02-18T12:06:27;100729.00;;;10.90;nan
36980;BME280;22891;50.562;7.272;2023-02-18T12:10:49;100699.00;;;10.98;nan
36980;BME280;22891;50.562;7.272;2023-02-18T12:13:37;100663.00;;;11.05;nan
36980;BME280;22891;50.562;7.272;2023-02-18T12:27:42;100564.00;;;10.97;nan
36980;BME280;22891;50.562;7.272;2023-02-18T12:34:34;100463.00;;;10.93;nan
36980;BME280;22891;50.562;7.272;2023-02-18T12:48:31;100435.00;;;11.06;nan
36980;BME280;22891;50.562;7.272;2023-02-18T13:11:53;100508.00;;;10.68;nan
36980;BME280;22891;50.562;7.272;2023-02-18T13:14:27;100509.00;;;10.85;nan
36980;BME280;22891;50.562;7.272;2023-02-18T13:16:57;100512.00;;;10.80;nan
36980;BME280;22891;50.562;7.272;2023-02-18T13:20:05;100526.00;;;10.76;nan
36980;BME280;22891;50.562;7.272;2023-02-18T13:22:32;100507.00;;;10.71;nan
36980;BME280;22891;50.562;7.272;2023-02-18T13:24:59;100519.00;;;10.81;nan
36980;BME280;22891;50.562;7.272;2023-02-18T13:35:02;100539.00;;;10.87;nan
36980;BME280;22891;50.562;7.272;2023-02-18T13:39:22;100508.00;;;11.00;nan
36980;BME280;22891;50.562;7.272;2023-02-18T13:42:11;100477.00;;;10.80;nan
36980;BME280;22891;50.562;7.272;2023-02-18T13:45:32;100447.00;;;10.93;nan
36980;BME280;22891;50.562;7.272;2023-02-18T13:47:59;100453.00;;;10.76;nan
36980;BME280;22891;50.562;7.272;2023-02-18T13:50:32;100440.00;;;10.83;nan
36980;BME280;22891;50.562;7.272;2023-02-18T13:56:32;100444.00;;;11.03;nan
36980;BME280;22891;50.562;7.272;2023-02-18T13:59:17;100459.00;;;10.86;nan
36980;BME280;22891;50.562;7.272;2023-02-18T14:01:46;100454.00;;;10.92;nan
36980;BME280;22891;50.562;7.272;2023-02-18T14:14:54;100459.00;;;10.80;nan
36980;BME280;22891;50.562;7.272;2023-02-18T14:17:33;100455.00;;;10.93;nan
36980;BME280;22891;50.562;7.272;2023-02-18T14:20:48;100448.00;;;11.05;nan
36980;BME280;22891;50.562;7.272;2023-02-18T14:24:00;100468.00;;;11.10;nan
36980;BME280;22891;50.562;7.272;2023-02-18T14:26:35;100482.00;;;11.22;nan
36980;BME280;22891;50.562;7.272;2023-02-18T14:32:11;100508.00;;;11.28;nan
36980;BME280;22891;50.562;7.272;2023-02-18T14:35:03;100540.00;;;11.41;nan
36980;BME280;22891;50.562;7.272;2023-02-18T14:38:19;100553.00;;;11.24;nan
36980;BME280;22891;50.562;7.272;2023-02-18T14:41:03;100568.00;;;11.23;nan
36980;BME280;22891;50.562;7.272;2023-02-18T14:44:32;100571.00;;;11.31;nan
36980;BME280;22891;50.562;7.272;2023-02-18T14:48:13;100571.00;;;11.31;nan
36980;BME280;22891;50.562;7.272;2023-02-18T14:50:44;100590.00;;;11.56;nan
36980;BME280;22891;50.562;7.272;2023-02-18T14:53:22;100609.00;;;11.71;nan
36980;BME280;22891;50.562;7.272;2023-02-18T14:55:53;100638.00;;;11.85;nan
36980;BME280;22891;50.562;7.272;2023-02-18T14:58:30;100661.00;;;11.74;nan
36980;BME280;22891;50.562;7.272;2023-02-18T15:01:05;100703.00;;;11.51;nan
36980;BME280;22891;50.562;7.272;2023-02-18T15:03:31;100685.00;;;11.50;nan
36980;BME280;22891;50.562;7.272;2023-02-18T15:05:57;100689.00;;;11.50;nan
36980;BME280;22891;50.562;7.272;2023-02-18T15:08:24;100715.00;;;11.57;nan
36980;BME280;22891;50.562;7.272;2023-02-18T15:10:57;100711.00;;;11.49;nan
36980;BME280;22891;50.562;7.272;2023-02-18T15:13:30;100691.00;;;11.50;nan
36980;BME280;22891;50.562;7.272;2023-02-18T15:21:15;100731.00;;;11.16;nan
36980;BME280;22891;50.562;7.272;2023-02-18T15:23:42;100717.00;;;11.18;nan
36980;BME280;22891;50.562;7.272;2023-02-18T15:26:13;100708.00;;;11.28;nan
36980;BME280;22891;50.562;7.272;2023-02-18T15:28:59;100727.00;;;11.24;nan
36980;BME280;22891;50.562;7.272;2023-02-18T15:31:30;100734.00;;;11.25;nan
36980;BME280;22891;50.562;7.272;2023-02-18T15:34:00;100736.00;;;11.33;nan
36980;BME280;22891;50.562;7.272;2023-02-18T15:36:26;100753.00;;;11.30;nan
36980;BME280;22891;50.562;7.272;2023-02-18T15:38:52;100758.00;;;11.30;nan
36980;BME280;22891;50.562;7.272;2023-02-18T15:44:23;100767.00;;;11.26;nan
36980;BME280;22891;50.562;7.272;2023-02-18T15:46:50;100779.00;;;11.27;nan
36980;BME280;22891;50.562;7.272;2023-02-18T15:49:19;100774.00;;;11.13;nan
36980;BME280;22891;50.562;7.272;2023-02-18T15:51:47;100784.00;;;11.11;nan
36980;BME280;22891;50.562;7.272;2023-02-18T15:54:17;100769.00;;;11.11;nan
36980;BME280;22891;50.562;7.272;2023-02-18T15:57:26;100780.00;;;11.12;nan
36980;BME280;22891;50.562;7.272;2023-02-18T16:00:10;100780.00;;;11.12;nan
36980;BME280;22891;50.562;7.272;2023-02-18T16:02:53;100778.00;;;11.12;nan
36980;BME280;22891;50.562;7.272;2023-02-18T16:05:24;100802.00;;;11.25;nan
36980;BME280;22891;50.562;7.272;2023-02-18T16:07:52;100799.00;;;11.26;nan
36980;BME280;22891;50.562;7.272;2023-02-18T16:11:08;100807.00;;;11.17;nan
36980;BME280;22891;50.562;7.272;2023-02-18T16:13:43;100802.00;;;11.22;nan
36980;BME280;22891;50.562;7.272;2023-02-18T16:16:28;100813.00;;;11.31;nan
36980;BME280;22891;50.562;7.272;2023-02-18T16:18:54;100826.00;;;11.25;nan
36980;BME280;22891;50.562;7.272;2023-02-18T16:21:29;100827.00;;;11.30;nan
36980;BME280;22891;50.562;7.272;2023-02-18T16:23:57;100830.00;;;11.29;nan
36980;BME280;22891;50.562;7.272;2023-02-18T16:26:42;100839.00;;;11.22;nan
36980;BME280;22891;50.562;7.272;2023-02-18T16:29:14;100842.00;;;11.25;nan
36980;BME280;22891;50.562;7.272;2023-02-18T16:31:41;100850.00;;;11.19;nan
36980;BME280;22891;50.562;7.272;2023-02-18T16:34:07;100818.00;;;11.16;nan
36980;BME280;22891;50.562;7.272;2023-02-18T16:36:33;100830.00;;;11.26;nan
36980;BME280;22891;50.562;7.272;2023-02-18T16:38:59;100844.00;;;11.16;nan
36980;BME280;22891;50.562;7.272;2023-02-18T16:41:27;100835.00;;;11.20;nan
36980;BME280;22891;50.562;7.272;2023-02-18T16:43:53;100841.00;;;11.26;nan
36980;BME280;22891;50.562;7.272;2023-02-18T16:46:21;100858.00;;;11.42;nan
36980;BME280;22891;50.562;7.272;2023-02-18T16:48:52;100852.00;;;11.27;nan
36980;BME280;22891;50.562;7.272;2023-02-18T16:51:32;100824.00;;;11.07;nan
36980;BME280;22891;50.562;7.272;2023-02-18T16:56:26;100721.00;;;10.92;nan
36980;BME280;22891;50.562;7.272;2023-02-18T16:58:54;100686.00;;;10.87;nan
36980;BME280;22891;50.562;7.272;2023-02-18T17:01:35;100644.00;;;10.81;nan
36980;BME280;22891;50.562;7.272;2023-02-18T17:04:04;100644.00;;;10.84;nan
36980;BME280;22891;50.562;7.272;2023-02-18T17:06:30;100626.00;;;10.76;nan
36980;BME280;22891;50.562;7.272;2023-02-18T17:08:56;100609.00;;;10.78;nan
36980;BME280;22891;50.562;7.272;2023-02-18T17:11:31;100580.00;;;10.59;nan
36980;BME280;22891;50.562;7.272;2023-02-18T17:13:58;100572.00;;;10.50;nan
36980;BME280;22891;50.562;7.272;2023-02-18T17:16:25;100563.00;;;10.47;nan
36980;BME280;22891;50.562;7.272;2023-02-18T17:18:51;100561.00;;;10.52;nan
36980;BME280;22891;50.562;7.272;2023-02-18T17:21:21;100557.00;;;10.47;nan
36980;BME280;22891;50.562;7.272;2023-02-18T17:23:47;100536.00;;;10.47;nan
36980;BME280;22891;50.562;7.272;2023-02-18T17:26:24;100516.00;;;10.52;nan
36980;BME280;22891;50.562;7.272;2023-02-18T17:28:51;100510.00;;;10.44;nan
36980;BME280;22891;50.562;7.272;2023-02-18T17:31:20;100505.00;;;10.46;nan
36980;BME280;22891;50.562;7.272;2023-02-18T17:33:49;100491.00;;;10.45;nan
36980;BME280;22891;50.562;7.272;2023-02-18T17:36:15;100507.00;;;10.50;nan
36980;BME280;22891;50.562;7.272;2023-02-18T17:38:41;100515.00;;;10.53;nan
36980;BME280;22891;50.562;7.272;2023-02-18T17:41:07;100542.00;;;10.50;nan
36980;BME280;22891;50.562;7.272;2023-02-18T17:43:33;100544.00;;;10.36;nan
36980;BME280;22891;50.562;7.272;2023-02-18T17:45:59;100561.00;;;10.45;nan
36980;BME280;22891;50.562;7.272;2023-02-18T17:48:25;100561.00;;;10.55;nan
36980;BME280;22891;50.562;7.272;2023-02-18T17:50:52;100565.00;;;10.59;nan
36980;BME280;22891;50.562;7.272;2023-02-18T17:53:18;100582.00;;;10.62;nan
36980;BME280;22891;50.562;7.272;2023-02-18T17:55:47;100578.00;;;10.66;nan
36980;BME280;22891;50.562;7.272;2023-02-18T17:58:13;100563.00;;;10.58;nan
36980;BME280;22891;50.562;7.272;2023-02-18T18:00:48;100563.00;;;10.43;nan
36980;BME280;22891;50.562;7.272;2023-02-18T18:03:15;100562.00;;;10.47;nan
36980;BME280;22891;50.562;7.272;2023-02-18T18:05:44;100562.00;;;10.36;nan
36980;BME280;22891;50.562;7.272;2023-02-18T18:08:10;100557.00;;;10.48;nan
36980;BME280;22891;50.562;7.272;2023-02-18T18:10:39;100561.00;;;10.51;nan
36980;BME280;22891;50.562;7.272;2023-02-18T18:13:08;100566.00;;;10.43;nan
36980;BME280;22891;50.562;7.272;2023-02-18T18:15:39;100561.00;;;10.46;nan
36980;BME280;22891;50.562;7.272;2023-02-18T18:18:05;100587.00;;;10.52;nan
36980;BME280;22891;50.562;7.272;2023-02-18T18:20:32;100576.00;;;10.58;nan
36980;BME280;22891;50.562;7.272;2023-02-18T18:23:00;100561.00;;;10.49;nan
36980;BME280;22891;50.562;7.272;2023-02-18T18:25:29;100565.00;;;10.58;nan
36980;BME280;22891;50.562;7.272;2023-02-18T18:27:55;100560.00;;;10.56;nan
36980;BME280;22891;50.562;7.272;2023-02-18T18:30:23;100541.00;;;10.55;nan
36980;BME280;22891;50.562;7.272;2023-02-18T18:32:50;100530.00;;;10.46;nan
36980;BME280;22891;50.562;7.272;2023-02-18T18:35:28;100527.00;;;10.57;nan
36980;BME280;22891;50.562;7.272;2023-02-18T18:37:54;100546.00;;;10.63;nan
36980;BME280;22891;50.562;7.272;2023-02-18T18:40:23;100571.00;;;10.55;nan
36980;BME280;22891;50.562;7.272;2023-02-18T18:42:51;100568.00;;;10.41;nan
36980;BME280;22891;50.562;7.272;2023-02-18T18:45:29;100590.00;;;10.38;nan
36980;BME280;22891;50.562;7.272;2023-02-18T18:47:55;100578.00;;;10.21;nan
36980;BME280;22891;50.562;7.272;2023-02-18T18:50:22;100583.00;;;10.26;nan
36980;BME280;22891;50.562;7.272;2023-02-18T18:52:50;100593.00;;;10.31;nan
36980;BME280;22891;50.562;7.272;2023-02-18T18:55:34;100603.00;;;10.30;nan
36980;BME280;22891;50.562;7.272;2023-02-18T18:58:00;100597.00;;;10.20;nan
36980;BME280;22891;50.562;7.272;2023-02-18T19:01:01;100601.00;;;10.19;nan
36980;BME280;22891;50.562;7.272;2023-02-18T19:03:32;100601.00;;;10.24;nan
36980;BME280;22891;50.562;7.272;2023-02-18T19:05:59;100606.00;;;10.26;nan
36980;BME280;22891;50.562;7.272;2023-02-18T19:08:25;100605.00;;;10.28;nan
36980;BME280;22891;50.562;7.272;2023-02-18T19:10:53;100608.00;;;10.39;nan
36980;BME280;22891;50.562;7.272;2023-02-18T19:13:24;100609.00;;;10.34;nan
36980;BME280;22891;50.562;7.272;2023-02-18T19:15:58;100611.00;;;10.43;nan
36980;BME280;22891;50.562;7.272;2023-02-18T19:18:25;100620.00;;;10.31;nan
36980;BME280;22891;50.562;7.272;2023-02-18T19:20:52;100622.00;;;10.45;nan
36980;BME280;22891;50.562;7.272;2023-02-18T19:23:18;100637.00;;;10.45;nan
36980;BME280;22891;50.562;7.272;2023-02-18T19:25:43;100638.00;;;10.45;nan
36980;BME280;22891;50.562;7.272;2023-02-18T19:28:10;100639.00;;;10.36;nan
36980;BME280;22891;50.562;7.272;2023-02-18T19:30:39;100651.00;;;10.53;nan
36980;BME280;22891;50.562;7.272;2023-02-18T19:33:10;100642.00;;;10.65;nan
36980;BME280;22891;50.562;7.272;2023-02-18T19:35:38;100655.00;;;10.49;nan
36980;BME280;22891;50.562;7.272;2023-02-18T19:38:07;100657.00;;;10.40;nan
36980;BME280;22891;50.562;7.272;2023-02-18T19:40:34;100645.00;;;10.40;nan
36980;BME280;22891;50.562;7.272;2023-02-18T19:43:00;100636.00;;;10.40;nan
36980;BME280;22891;50.562;7.272;2023-02-18T19:45:26;100639.00;;;10.35;nan
36980;BME280;22891;50.562;7.272;2023-02-18T19:47:56;100636.00;;;10.44;nan
36980;BME280;22891;50.562;7.272;2023-02-18T19:50:23;100634.00;;;10.39;nan
36980;BME280;22891;50.562;7.272;2023-02-18T19:52:55;100637.00;;;10.41;nan
36980;BME280;22891;50.562;7.272;2023-02-18T19:55:21;100632.00;;;10.45;nan
36980;BME280;22891;50.562;7.272;2023-02-18T19:57:48;100634.00;;;10.49;nan
36980;BME280;22891;50.562;7.272;2023-02-18T20:00:16;100640.00;;;10.51;nan
36980;BME280;22891;50.562;7.272;2023-02-18T20:02:42;100659.00;;;10.39;nan
36980;BME280;22891;50.562;7.272;2023-02-18T20:05:09;100657.00;;;10.47;nan
36980;BME280;22891;50.562;7.272;2023-02-18T20:07:35;100659.00;;;10.39;nan
36980;BME280;22891;50.562;7.272;2023-02-18T20:10:03;100651.00;;;10.40;nan
36980;BME280;22891;50.562;7.272;2023-02-18T20:12:30;100643.00;;;10.41;nan
36980;BME280;22891;50.562;7.272;2023-02-18T20:14:56;100634.00;;;10.62;nan
36980;BME280;22891;50.562;7.272;2023-02-18T20:17:22;100627.00;;;10.49;nan
36980;BME280;22891;50.562;7.272;2023-02-18T20:19:47;100614.00;;;10.59;nan
36980;BME280;22891;50.562;7.272;2023-02-18T20:22:13;100621.00;;;10.65;nan
36980;BME280;22891;50.562;7.272;2023-02-18T20:24:40;100633.00;;;10.77;nan
36980;BME280;22891;50.562;7.272;2023-02-18T20:27:07;100628.00;;;10.83;nan
36980;BME280;22891;50.562;7.272;2023-02-18T20:29:33;100616.00;;;10.76;nan
36980;BME280;22891;50.562;7.272;2023-02-18T20:32:01;100605.00;;;10.60;nan
36980;BME280;22891;50.562;7.272;2023-02-18T20:34:27;100578.00;;;10.44;nan
36980;BME280;22891;50.562;7.272;2023-02-18T20:36:53;100574.00;;;10.32;nan
36980;BME280;22891;50.562;7.272;2023-02-18T20:39:18;100550.00;;;10.30;nan
36980;BME280;22891;50.562;7.272;2023-02-18T20:41:46;100549.00;;;10.51;nan
36980;BME280;22891;50.562;7.272;2023-02-18T20:44:15;100583.00;;;10.50;nan
36980;BME280;22891;50.562;7.272;2023-02-18T20:46:42;100610.00;;;10.50;nan
36980;BME280;22891;50.562;7.272;2023-02-18T20:49:14;100601.00;;;10.57;nan
36980;BME280;22891;50.562;7.272;2023-02-18T20:51:40;100597.00;;;10.47;nan
36980;BME280;22891;50.562;7.272;2023-02-18T20:54:08;100572.00;;;10.43;nan
36980;BME280;22891;50.562;7.272;2023-02-18T20:56:38;100552.00;;;10.50;nan
36980;BME280;22891;50.562;7.272;2023-02-18T20:59:04;100559.00;;;10.51;nan
36980;BME280;22891;50.562;7.272;2023-02-18T21:01:30;100547.00;;;10.57;nan
36980;BME280;22891;50.562;7.272;2023-02-18T21:03:56;100540.00;;;10.52;nan
36980;BME280;22891;50.562;7.272;2023-02-18T21:06:23;100542.00;;;10.53;nan
36980;BME280;22891;50.562;7.272;2023-02-18T21:08:51;100536.00;;;10.47;nan
36980;BME280;22891;50.562;7.272;2023-02-18T21:11:23;100524.00;;;10.49;nan
36980;BME280;22891;50.562;7.272;2023-02-18T21:13:51;100510.00;;;10.39;nan
36980;BME280;22891;50.562;7.272;2023-02-18T21:16:18;100520.00;;;10.36;nan
36980;BME280;22891;50.562;7.272;2023-02-18T21:18:45;100524.00;;;10.43;nan
36980;BME280;22891;50.562;7.272;2023-02-18T21:21:11;100514.00;;;10.49;nan
36980;BME280;22891;50.562;7.272;2023-02-18T21:23:37;100523.00;;;10.45;nan
36980;BME280;22891;50.562;7.272;2023-02-18T21:26:06;100503.00;;;10.49;nan
36980;BME280;22891;50.562;7.272;2023-02-18T21:28:33;100500.00;;;10.47;nan
36980;BME280;22891;50.562;7.272;2023-02-18T21:30:59;100495.00;;;10.57;nan
36980;BME280;22891;50.562;7.272;2023-02-18T21:33:24;100495.00;;;10.29;nan
36980;BME280;22891;50.562;7.272;2023-02-18T21:35:50;100479.00;;;10.50;nan
36980;BME280;22891;50.562;7.272;2023-02-18T21:38:16;100471.00;;;10.27;nan
36980;BME280;22891;50.562;7.272;2023-02-18T21:40:43;100455.00;;;10.23;nan
36980;BME280;22891;50.562;7.272;2023-02-18T21:43:10;100469.00;;;10.26;nan
36980;BME280;22891;50.562;7.272;2023-02-18T21:45:36;100463.00;;;10.33;nan
36980;BME280;22891;50.562;7.272;2023-02-18T21:48:03;100455.00;;;10.36;nan
36980;BME280;22891;50.562;7.272;2023-02-18T21:51:28;100458.00;;;10.38;nan
36980;BME280;22891;50.562;7.272;2023-02-18T21:54:15;100454.00;;;10.48;nan
36980;BME280;22891;50.562;7.272;2023-02-18T21:56:40;100432.00;;;10.41;nan
36980;BME280;22891;50.562;7.272;2023-02-18T21:59:06;100433.00;;;10.45;nan
36980;BME280;22891;50.562;7.272;2023-02-18T22:01:32;100439.00;;;10.48;nan
36980;BME280;22891;50.562;7.272;2023-02-18T22:03:58;100427.00;;;10.45;nan
36980;BME280;22891;50.562;7.272;2023-02-18T22:06:23;100414.00;;;10.30;nan
36980;BME280;22891;50.562;7.272;2023-02-18T22:08:49;100415.00;;;10.28;nan
36980;BME280;22891;50.562;7.272;2023-02-18T22:11:15;100410.00;;;10.26;nan
36980;BME280;22891;50.562;7.272;2023-02-18T22:13:47;100414.00;;;10.23;nan
36980;BME280;22891;50.562;7.272;2023-02-18T22:16:13;100407.00;;;10.31;nan
36980;BME280;22891;50.562;7.272;2023-02-18T22:18:39;100413.00;;;10.50;nan
36980;BME280;22891;50.562;7.272;2023-02-18T22:21:06;100420.00;;;10.40;nan
36980;BME280;22891;50.562;7.272;2023-02-18T22:23:32;100415.00;;;10.37;nan
36980;BME280;22891;50.562;7.272;2023-02-18T22:26:03;100411.00;;;10.48;nan
36980;BME280;22891;50.562;7.272;2023-02-18T22:28:28;100405.00;;;10.50;nan
36980;BME280;22891;50.562;7.272;2023-02-18T22:30:54;100397.00;;;10.33;nan
36980;BME280;22891;50.562;7.272;2023-02-18T22:33:20;100377.00;;;10.23;nan
36980;BME280;22891;50.562;7.272;2023-02-18T22:35:45;100356.00;;;10.23;nan
36980;BME280;22891;50.562;7.272;2023-02-18T22:38:11;100341.00;;;10.27;nan
36980;BME280;22891;50.562;7.272;2023-02-18T22:40:37;100353.00;;;10.27;nan
36980;BME280;22891;50.562;7.272;2023-02-18T22:43:02;100360.00;;;10.42;nan
36980;BME280;22891;50.562;7.272;2023-02-18T22:45:28;100370.00;;;10.26;nan
36980;BME280;22891;50.562;7.272;2023-02-18T22:47:54;100366.00;;;10.20;nan
36980;BME280;22891;50.562;7.272;2023-02-18T22:50:20;100347.00;;;10.32;nan
36980;BME280;22891;50.562;7.272;2023-02-18T22:52:45;100335.00;;;10.35;nan
36980;BME280;22891;50.562;7.272;2023-02-18T22:55:12;100338.00;;;10.32;nan
36980;BME280;22891;50.562;7.272;2023-02-18T22:57:38;100323.00;;;10.24;nan
36980;BME280;22891;50.562;7.272;2023-02-18T23:00:07;100309.00;;;10.33;nan
36980;BME280;22891;50.562;7.272;2023-02-18T23:02:35;100307.00;;;10.29;nan
36980;BME280;22891;50.562;7.272;2023-02-18T23:05:01;100312.00;;;10.29;nan
36980;BME280;22891;50.562;7.272;2023-02-18T23:07:26;100321.00;;;10.24;nan
36980;BME280;22891;50.562;7.272;2023-02-18T23:09:52;100335.00;;;10.30;nan
36980;BME280;22891;50.562;7.272;2023-02-18T23:12:18;100327.00;;;10.44;nan
36980;BME280;22891;50.562;7.272;2023-02-18T23:14:43;100325.00;;;10.40;nan
36980;BME280;22891;50.562;7.272;2023-02-18T23:17:09;100339.00;;;10.32;nan
36980;BME280;22891;50.562;7.272;2023-02-18T23:19:45;100325.00;;;10.27;nan
36980;BME280;22891;50.562;7.272;2023-02-18T23:22:13;100322.00;;;10.38;nan
36980;BME280;22891;50.562;7.272;2023-02-18T23:24:42;100309.00;;;10.43;nan
36980;BME280;22891;50.562;7.272;2023-02-18T23:27:10;100316.00;;;10.25;nan
36980;BME280;22891;50.562;7.272;2023-02-18T23:29:36;100320.00;;;10.40;nan
36980;BME280;22891;50.562;7.272;2023-02-18T23:32:02;100330.00;;;10.25;nan
36980;BME280;22891;50.562;7.272;2023-02-18T23:34:28;100305.00;;;10.31;nan
36980;BME280;22891;50.562;7.272;2023-02-18T23:36:55;100311.00;;;10.18;nan
36980;BME280;22891;50.562;7.272;2023-02-18T23:39:21;100324.00;;;10.28;nan
36980;BME280;22891;50.562;7.272;2023-02-18T23:41:48;100336.00;;;10.28;nan
36980;BME280;22891;50.562;7.272;2023-02-18T23:44:16;100333.00;;;10.35;nan
36980;BME280;22891;50.562;7.272;2023-02-18T23:46:42;100333.00;;;10.29;nan
36980;BME280;22891;50.562;7.272;2023-02-18T23:49:19;100331.00;;;10.28;nan
36980;BME280;22891;50.562;7.272;2023-02-18T23:51:47;100322.00;;;10.16;nan
36980;BME280;22891;50.562;7.272;2023-02-18T23:54:12;100309.00;;;10.17;nan
36980;BME280;22891;50.562;7.272;2023-02-18T23:56:38;100287.00;;;10.15;nan
36980;BME280;22891;50.562;7.272;2023-02-18T23:59:05;100277.00;;;10.17;nan
